createdAt,value
2023-07-11T00:01:21.345Z,2.60
2023-07-11T00:03:50.334Z,2.40
2023-07-11T00:06:20.609Z,2.33
2023-07-11T00:08:47.550Z,2.30
2023-07-11T00:11:17.461Z,2.35
2023-07-11T00:13:44.415Z,2.75
2023-07-11T00:16:13.937Z,2.83
2023-07-11T00:18:41.346Z,2.83
2023-07-11T00:21:08.075Z,2.38
2023-07-11T00:23:34.689Z,2.95
2023-07-11T00:26:01.459Z,2.30
2023-07-11T00:28:28.445Z,2.47
2023-07-11T00:30:55.549Z,2.58
2023-07-11T00:33:24.827Z,3.05
2023-07-11T00:35:53.992Z,2.15
2023-07-11T00:38:21.846Z,2.55
2023-07-11T00:40:49.991Z,3.08
2023-07-11T00:43:19.728Z,3.00
2023-07-11T00:46:12.402Z,3.05
2023-07-11T00:48:49.709Z,3.08
2023-07-11T00:51:26.078Z,3.40
2023-07-11T00:53:52.978Z,2.97
2023-07-11T00:56:23.014Z,2.83
2023-07-11T00:58:50.735Z,2.75
2023-07-11T01:01:21.839Z,3.15
2023-07-11T01:03:49.940Z,2.90
2023-07-11T01:06:20.224Z,3.10
2023-07-11T01:08:49.400Z,3.30
2023-07-11T01:11:17.178Z,3.28
2023-07-11T01:13:44.489Z,3.63
2023-07-11T01:16:11.225Z,2.92
2023-07-11T01:18:38.172Z,2.97
2023-07-11T01:21:06.276Z,2.88
2023-07-11T01:23:34.609Z,3.85
2023-07-11T01:26:03.694Z,3.13
2023-07-11T01:28:30.579Z,3.55
2023-07-11T01:30:57.749Z,3.28
2023-07-11T01:33:26.405Z,3.00
2023-07-11T01:35:56.357Z,3.30
2023-07-11T01:38:26.182Z,3.75
2023-07-11T01:40:55.359Z,3.80
2023-07-11T01:43:24.308Z,3.97
2023-07-11T01:45:51.085Z,3.95
2023-07-11T01:48:17.774Z,3.40
2023-07-11T01:50:46.630Z,3.15
2023-07-11T01:53:13.732Z,3.72
2023-07-11T01:55:40.432Z,3.65
2023-07-11T01:58:09.246Z,3.42
2023-07-11T02:00:35.968Z,3.20
2023-07-11T02:03:02.984Z,3.45
2023-07-11T02:05:32.158Z,3.15
2023-07-11T02:07:58.766Z,3.22
2023-07-11T02:10:25.487Z,3.63
2023-07-11T02:12:52.102Z,3.90
2023-07-11T02:15:21.183Z,3.67
2023-07-11T02:17:50.266Z,3.60
2023-07-11T02:20:16.981Z,3.33
2023-07-11T02:22:43.980Z,3.40
2023-07-11T02:25:12.824Z,3.25
2023-07-11T02:27:39.469Z,3.50
2023-07-11T02:30:09.721Z,3.40
2023-07-11T02:32:40.748Z,3.70
2023-07-11T02:35:07.835Z,4.00
2023-07-11T02:37:34.570Z,3.40
2023-07-11T02:40:03.792Z,3.70
2023-07-11T02:42:30.506Z,3.95
2023-07-11T02:44:59.491Z,4.32
2023-07-11T02:47:26.166Z,3.95
2023-07-11T02:49:52.804Z,4.22
2023-07-11T02:52:21.925Z,3.85
2023-07-11T02:54:50.727Z,4.55
2023-07-11T02:57:17.340Z,3.88
2023-07-11T02:59:44.048Z,3.63
2023-07-11T03:02:10.726Z,3.55
2023-07-11T03:04:39.960Z,3.83
2023-07-11T03:07:06.687Z,3.83
2023-07-11T03:09:34.366Z,3.78
2023-07-11T03:12:00.974Z,3.95
2023-07-11T03:14:27.760Z,4.05
2023-07-11T03:16:54.953Z,4.03
2023-07-11T03:19:22.338Z,3.70
2023-07-11T03:21:49.784Z,3.63
2023-07-11T03:24:16.831Z,4.13
2023-07-11T03:26:47.380Z,3.95
2023-07-11T03:29:15.358Z,4.15
2023-07-11T03:31:42.924Z,3.53
2023-07-11T03:34:09.590Z,4.03
2023-07-11T03:36:36.689Z,4.30
2023-07-11T03:39:04.988Z,3.80
2023-07-11T03:41:34.033Z,4.20
2023-07-11T03:44:03.743Z,4.18
2023-07-11T03:46:30.427Z,4.03
2023-07-11T03:49:03.433Z,4.40
2023-07-11T03:51:30.067Z,4.00
2023-07-11T03:53:56.757Z,4.32
2023-07-11T03:56:23.600Z,4.30
2023-07-11T03:58:51.131Z,4.38
2023-07-11T04:01:20.506Z,4.47
2023-07-11T04:03:47.340Z,4.30
2023-07-11T04:06:14.554Z,4.90
2023-07-11T04:08:41.607Z,4.72
2023-07-11T04:11:10.795Z,4.50
2023-07-11T04:13:37.989Z,4.15
2023-07-11T04:16:05.172Z,4.63
2023-07-11T04:18:35.363Z,4.82
2023-07-11T04:21:02.202Z,4.38
2023-07-11T04:23:29.247Z,3.95
2023-07-11T04:25:56.067Z,4.53
2023-07-11T04:28:24.967Z,4.32
2023-07-11T04:30:51.637Z,4.57
2023-07-11T04:33:19.356Z,4.85
2023-07-11T04:35:48.898Z,4.35
2023-07-11T04:38:15.689Z,4.15
2023-07-11T04:40:46.507Z,4.40
2023-07-11T04:43:16.038Z,3.78
2023-07-11T04:45:44.860Z,4.07
2023-07-11T04:48:11.540Z,3.90
2023-07-11T04:50:43.142Z,3.90
2023-07-11T04:53:12.358Z,3.78
2023-07-11T04:55:39.268Z,3.17
2023-07-11T04:58:05.871Z,3.35
2023-07-11T05:00:32.466Z,3.40
2023-07-11T05:02:59.072Z,3.28
2023-07-11T05:05:27.965Z,3.72
2023-07-11T05:07:54.568Z,3.42
2023-07-11T05:10:23.665Z,3.45
2023-07-11T05:12:52.345Z,3.13
2023-07-11T05:15:19.076Z,2.70
2023-07-11T05:17:50.524Z,3.05
2023-07-11T05:20:17.182Z,2.83
2023-07-11T05:22:46.069Z,2.92
2023-07-11T05:25:12.734Z,2.83
2023-07-11T05:27:41.589Z,2.90
2023-07-11T05:30:09.301Z,2.80
2023-07-11T05:32:38.489Z,2.65
2023-07-11T05:35:10.948Z,2.50
2023-07-11T05:37:37.707Z,3.00
2023-07-11T05:40:07.133Z,2.15
2023-07-11T05:42:33.708Z,2.47
2023-07-11T05:45:00.344Z,2.50
2023-07-11T05:47:27.128Z,2.47
2023-07-11T05:49:53.730Z,3.22
2023-07-11T05:52:22.652Z,2.58
2023-07-11T05:54:49.375Z,2.42
2023-07-11T05:57:16.248Z,2.30
2023-07-11T05:59:42.940Z,2.35
2023-07-11T06:02:10.911Z,2.50
2023-07-11T06:04:37.576Z,2.78
2023-07-11T06:07:06.619Z,2.17
2023-07-11T06:09:35.788Z,2.10
2023-07-11T06:12:04.842Z,1.80
2023-07-11T06:14:31.543Z,1.42
2023-07-11T06:16:58.265Z,2.08
2023-07-11T06:19:25.001Z,1.80
2023-07-11T06:21:51.671Z,1.73
2023-07-11T06:24:18.362Z,2.08
2023-07-11T06:26:45.013Z,1.80
2023-07-11T06:29:11.711Z,1.67
2023-07-11T06:31:38.621Z,1.70
2023-07-11T06:34:05.373Z,2.03
2023-07-11T06:36:32.128Z,2.17
2023-07-11T06:38:58.823Z,1.80
2023-07-11T06:41:25.837Z,1.90
2023-07-11T06:43:54.341Z,1.70
2023-07-11T06:46:21.417Z,2.00
2023-07-11T06:48:48.194Z,1.85
2023-07-11T06:51:17.456Z,2.28
2023-07-11T06:53:44.095Z,2.20
2023-07-11T06:56:11.045Z,2.00
2023-07-11T06:58:40.145Z,1.58
2023-07-11T07:01:13.759Z,1.85
2023-07-11T07:03:46.123Z,1.83
2023-07-11T07:06:14.712Z,1.80
2023-07-11T07:08:42.479Z,1.58
2023-07-11T07:11:10.294Z,1.77
2023-07-11T07:13:39.998Z,1.90
2023-07-11T07:16:13.502Z,1.60
2023-07-11T07:18:42.746Z,1.60
2023-07-11T07:21:11.216Z,1.70
2023-07-11T07:23:38.267Z,1.70
2023-07-11T07:26:05.936Z,1.60
2023-07-11T07:28:34.077Z,1.88
2023-07-11T07:31:04.774Z,1.67
2023-07-11T07:33:34.487Z,1.50
2023-07-11T07:36:06.594Z,1.80
2023-07-11T07:38:34.413Z,1.73
2023-07-11T07:41:05.650Z,2.88
2023-07-11T07:43:34.103Z,2.65
2023-07-11T07:46:02.782Z,2.20
2023-07-11T07:48:29.711Z,1.65
2023-07-11T07:51:09.385Z,1.52
2023-07-11T07:53:36.768Z,1.40
2023-07-11T07:56:15.557Z,1.65
2023-07-11T07:58:44.577Z,1.88
2023-07-11T08:01:14.298Z,1.73
2023-07-11T08:03:44.180Z,1.23
2023-07-11T08:06:16.906Z,1.75
2023-07-11T08:08:46.372Z,1.33
2023-07-11T08:11:15.234Z,1.40
2023-07-11T08:16:29.401Z,1.77
2023-07-11T08:18:58.096Z,1.40
2023-07-11T08:21:25.530Z,1.65
2023-07-11T08:23:52.881Z,1.58
2023-07-11T08:26:20.302Z,1.63
2023-07-11T08:28:47.285Z,1.30
2023-07-11T08:31:15.575Z,1.50
2023-07-11T08:33:43.326Z,1.48
2023-07-11T08:36:12.417Z,1.38
2023-07-11T08:38:39.246Z,1.55
2023-07-11T08:41:30.482Z,1.63
2023-07-11T08:44:03.749Z,1.30
2023-07-11T08:46:42.402Z,1.30
2023-07-11T08:49:18.866Z,1.70
2023-07-11T08:51:52.338Z,1.42
2023-07-11T08:54:40.218Z,1.60
2023-07-11T08:57:11.948Z,1.27
2023-07-11T08:59:48.968Z,1.30
2023-07-11T09:02:29.807Z,1.30
2023-07-11T09:04:57.373Z,1.83
2023-07-11T09:07:41.824Z,1.48
2023-07-11T09:10:56.862Z,1.13
2023-07-11T09:13:48.770Z,1.65
2023-07-11T09:16:36.366Z,1.48
2023-07-11T09:19:24.394Z,1.75
2023-07-11T09:21:58.854Z,1.65
2023-07-11T09:24:38.038Z,1.70
2023-07-11T09:27:26.595Z,1.55
2023-07-11T09:29:58.280Z,1.77
2023-07-11T09:32:35.682Z,1.50
2023-07-11T09:35:16.038Z,2.30
2023-07-11T09:37:47.798Z,1.38
2023-07-11T09:40:38.347Z,1.70
2023-07-11T09:43:06.154Z,1.63
2023-07-11T09:45:42.895Z,1.40
2023-07-11T09:48:15.453Z,1.50
2023-07-11T09:51:02.490Z,1.75
2023-07-11T09:53:35.475Z,1.50
2023-07-11T09:58:35.930Z,2.15
2023-07-11T10:01:08.516Z,1.55
2023-07-11T10:03:37.186Z,1.50
2023-07-11T10:06:07.811Z,1.50
2023-07-11T10:08:37.575Z,1.73
2023-07-11T10:11:07.158Z,1.45
2023-07-11T10:16:07.607Z,1.40
2023-07-11T10:18:36.794Z,1.60
2023-07-11T10:21:32.007Z,1.80
2023-07-11T10:24:03.416Z,1.67
2023-07-11T10:26:32.121Z,1.95
2023-07-11T10:29:08.802Z,1.73
2023-07-11T10:31:51.167Z,1.90
2023-07-11T10:34:51.193Z,1.45
2023-07-11T10:37:30.055Z,1.52
2023-07-11T10:40:20.585Z,1.60
2023-07-11T10:43:00.669Z,2.03
2023-07-11T10:45:34.200Z,1.88
2023-07-11T10:48:08.227Z,1.75
2023-07-11T10:51:01.308Z,1.60
2023-07-11T10:53:36.913Z,1.85
2023-07-11T10:56:14.476Z,1.70
2023-07-11T10:58:43.390Z,1.65
2023-07-11T11:01:19.185Z,1.73
2023-07-11T11:04:41.667Z,1.90
2023-07-11T11:07:31.939Z,1.80
2023-07-11T11:10:14.180Z,1.67
2023-07-11T11:12:57.110Z,1.80
2023-07-11T11:15:41.274Z,1.55
2023-07-11T11:18:40.947Z,1.85
2023-07-11T11:21:30.218Z,1.67
2023-07-11T11:24:22.286Z,1.55
2023-07-11T11:27:18.502Z,1.80
2023-07-11T11:29:51.741Z,2.00
2023-07-11T11:32:28.607Z,1.73
2023-07-11T11:35:25.910Z,1.83
2023-07-11T11:38:06.442Z,1.70
2023-07-11T11:40:42.641Z,1.52
2023-07-11T11:43:20.400Z,2.42
2023-07-11T11:51:12.820Z,1.88
2023-07-11T11:53:51.084Z,1.60
2023-07-11T11:56:25.037Z,2.00
2023-07-11T11:58:58.927Z,1.70
2023-07-11T12:01:47.365Z,1.95
2023-07-11T12:04:33.527Z,1.77
2023-07-11T12:07:04.343Z,1.70
2023-07-11T12:09:54.170Z,1.55
2023-07-11T12:12:56.717Z,2.13
2023-07-11T12:15:33.392Z,1.67
2023-07-11T12:18:24.543Z,2.40
2023-07-11T12:21:16.430Z,2.10
2023-07-11T12:24:38.205Z,2.15
2023-07-11T12:26:42.553Z,2.03
2023-07-11T12:29:52.622Z,1.80
2023-07-11T12:32:34.564Z,2.00
2023-07-11T12:35:07.597Z,1.88
2023-07-11T12:37:58.116Z,1.90
2023-07-11T12:40:27.833Z,1.67
2023-07-11T12:43:00.737Z,2.20
2023-07-11T12:45:38.310Z,2.10
2023-07-11T12:48:04.906Z,2.55
2023-07-11T12:50:52.190Z,2.10
2023-07-11T12:53:22.710Z,2.20
2023-07-11T12:55:57.318Z,2.40
2023-07-11T12:58:27.135Z,2.20
2023-07-11T13:00:56.164Z,1.90
2023-07-11T13:03:25.496Z,1.60
2023-07-11T13:06:22.008Z,1.95
2023-07-11T13:08:49.996Z,2.10
2023-07-11T13:11:23.057Z,1.98
2023-07-11T13:13:51.081Z,1.60
2023-07-11T13:16:23.892Z,2.00
2023-07-11T13:18:52.402Z,2.05
2023-07-11T13:21:22.852Z,1.67
2023-07-11T13:23:50.485Z,2.08
2023-07-11T13:26:23.490Z,2.05
2023-07-11T13:29:18.715Z,2.30
2023-07-11T13:31:47.852Z,1.90
2023-07-11T13:34:18.986Z,1.88
2023-07-11T13:36:49.455Z,1.70
2023-07-11T13:39:22.002Z,1.98
2023-07-11T13:41:53.483Z,1.63
2023-07-11T13:44:31.781Z,2.22
2023-07-11T13:47:03.741Z,1.80
2023-07-11T13:49:40.870Z,1.67
2023-07-11T13:52:42.344Z,1.80
2023-07-11T13:55:26.637Z,1.90
2023-07-11T13:57:54.040Z,1.80
2023-07-11T14:00:23.602Z,1.73
2023-07-11T14:02:51.664Z,1.83
2023-07-11T14:05:24.558Z,1.90
2023-07-11T14:07:58.773Z,1.85
2023-07-11T14:10:30.231Z,1.88
2023-07-11T14:12:58.872Z,1.98
2023-07-11T14:15:28.545Z,1.75
2023-07-11T14:18:01.969Z,2.00
2023-07-11T14:20:31.234Z,1.40
2023-07-11T14:22:58.377Z,1.80
2023-07-11T14:25:32.091Z,1.85
2023-07-11T14:28:01.335Z,1.90
2023-07-11T14:30:30.587Z,1.45
2023-07-11T14:32:57.285Z,1.52
2023-07-11T14:35:26.786Z,1.73
2023-07-11T14:37:54.771Z,1.48
2023-07-11T14:40:30.038Z,1.70
2023-07-11T14:42:56.823Z,1.52
2023-07-11T14:45:25.737Z,1.60
2023-07-11T14:47:57.718Z,1.45
2023-07-11T14:50:27.517Z,1.40
2023-07-11T14:52:54.936Z,2.10
2023-07-11T14:57:58.591Z,1.58
2023-07-11T15:00:27.672Z,1.75
2023-07-11T15:02:54.627Z,1.50
2023-07-11T15:10:29.624Z,2.03
2023-07-11T15:15:34.424Z,1.67
2023-07-11T15:18:01.569Z,1.45
2023-07-11T15:20:28.676Z,1.58
2023-07-11T15:23:02.498Z,1.55
2023-07-11T15:25:37.457Z,1.38
2023-07-11T15:28:23.007Z,1.42
2023-07-11T15:30:52.386Z,1.58
2023-07-11T15:33:29.758Z,1.52
2023-07-11T15:35:58.495Z,1.58
2023-07-11T15:38:25.589Z,1.60
2023-07-11T15:40:56.614Z,1.80
2023-07-11T15:43:27.437Z,1.80
2023-07-11T15:45:56.427Z,1.65
2023-07-11T15:48:23.927Z,1.55
2023-07-11T15:50:52.571Z,1.40
2023-07-11T15:53:19.836Z,1.33
2023-07-11T15:55:49.188Z,1.63
2023-07-11T15:58:23.261Z,1.58
2023-07-11T16:00:50.934Z,1.60
2023-07-11T16:03:23.761Z,1.85
2023-07-11T16:05:52.312Z,1.73
2023-07-11T16:08:24.126Z,1.65
2023-07-11T16:10:55.590Z,1.60
2023-07-11T16:13:24.974Z,1.98
2023-07-11T16:15:54.395Z,1.42
2023-07-11T16:18:24.061Z,1.63
2023-07-11T16:20:53.400Z,1.75
2023-07-11T16:23:22.379Z,1.77
2023-07-11T16:25:49.869Z,1.50
2023-07-11T16:28:27.528Z,1.90
2023-07-11T16:31:00.876Z,2.20
2023-07-11T16:33:28.537Z,1.90
2023-07-11T16:35:59.783Z,1.70
2023-07-11T16:38:32.478Z,2.20
2023-07-11T16:41:00.676Z,1.80
2023-07-11T16:43:30.330Z,2.28
2023-07-11T16:45:58.728Z,2.28
2023-07-11T16:48:29.338Z,2.10
2023-07-11T16:51:00.222Z,2.10
2023-07-11T16:53:31.089Z,3.05
2023-07-11T16:55:58.722Z,1.60
2023-07-11T16:58:39.535Z,1.80
2023-07-11T17:01:08.299Z,2.10
2023-07-11T17:03:35.449Z,2.15
2023-07-11T17:06:02.581Z,1.98
2023-07-11T17:08:32.688Z,1.98
2023-07-11T17:11:00.013Z,1.95
2023-07-11T17:13:35.897Z,1.88
2023-07-11T17:16:06.253Z,1.65
2023-07-11T17:18:33.258Z,1.70
2023-07-11T17:21:02.513Z,1.90
2023-07-11T17:23:29.308Z,1.95
2023-07-11T17:25:56.663Z,1.90
2023-07-11T17:28:27.648Z,2.40
2023-07-11T17:30:57.527Z,2.03
2023-07-11T17:33:31.815Z,1.73
2023-07-11T17:36:02.370Z,1.60
2023-07-11T17:38:31.338Z,1.40
2023-07-11T17:40:58.424Z,1.70
2023-07-11T17:43:27.558Z,1.95
2023-07-11T17:46:20.884Z,1.90
2023-07-11T17:48:46.678Z,1.42
2023-07-11T17:51:14.226Z,1.58
2023-07-11T17:53:44.196Z,2.00
2023-07-11T17:56:14.242Z,1.63
2023-07-11T17:58:41.704Z,1.77
2023-07-11T18:01:19.269Z,1.90
2023-07-11T18:03:47.416Z,1.60
2023-07-11T18:06:22.590Z,1.73
2023-07-11T18:08:50.423Z,1.48
2023-07-11T18:11:17.267Z,1.67
2023-07-11T18:13:46.993Z,1.80
2023-07-11T18:16:18.530Z,1.33
2023-07-11T18:18:47.538Z,1.55
2023-07-11T18:21:16.330Z,1.42
2023-07-11T18:23:42.954Z,1.73
2023-07-11T18:26:17.317Z,1.65
2023-07-11T18:28:47.833Z,1.33
2023-07-11T18:31:21.618Z,1.90
2023-07-11T18:33:50.716Z,1.60
2023-07-11T18:36:27.399Z,1.35
2023-07-11T18:38:58.540Z,1.30
2023-07-11T18:41:27.398Z,1.42
2023-07-11T18:43:54.172Z,1.17
2023-07-11T18:46:25.019Z,1.20
2023-07-11T18:48:51.759Z,1.20
2023-07-11T18:51:18.732Z,1.10
2023-07-11T18:53:45.389Z,1.20
2023-07-11T18:56:18.056Z,1.40
2023-07-11T18:58:45.665Z,1.08
2023-07-11T19:01:15.901Z,1.20
2023-07-11T19:03:42.787Z,1.02
2023-07-11T19:06:18.377Z,1.40
2023-07-11T19:08:48.489Z,0.80
2023-07-11T19:11:18.131Z,0.90
2023-07-11T19:13:45.569Z,1.05
2023-07-11T19:16:23.879Z,0.82
2023-07-11T19:18:52.196Z,0.73
2023-07-11T19:21:23.516Z,0.98
2023-07-11T19:23:50.320Z,0.70
2023-07-11T19:26:30.427Z,0.90
2023-07-11T19:29:01.189Z,0.80
2023-07-11T19:31:35.196Z,1.20
2023-07-11T19:34:02.876Z,1.33
2023-07-11T19:36:31.256Z,0.90
2023-07-11T19:38:58.303Z,1.02
2023-07-11T19:41:29.009Z,1.25
2023-07-11T19:43:55.615Z,1.23
2023-07-11T19:46:24.503Z,1.00
2023-07-11T19:48:51.595Z,1.30
2023-07-11T19:51:18.283Z,1.35
2023-07-11T19:53:45.020Z,1.70
2023-07-11T19:56:23.789Z,1.30
2023-07-11T19:58:53.736Z,1.13
2023-07-11T20:01:20.818Z,1.20
2023-07-11T20:03:48.172Z,1.20
2023-07-11T20:06:21.053Z,0.95
2023-07-11T20:08:49.043Z,0.90
2023-07-11T20:11:16.542Z,0.75
2023-07-11T20:13:45.464Z,0.82
2023-07-11T20:16:15.250Z,1.05
2023-07-11T20:18:42.026Z,0.85
2023-07-11T20:21:19.158Z,1.17
2023-07-11T20:23:49.084Z,0.88
2023-07-11T20:26:26.922Z,0.90
2023-07-11T20:28:54.525Z,0.77
2023-07-11T20:31:22.161Z,0.70
2023-07-11T20:33:51.407Z,0.80
2023-07-11T20:36:19.467Z,0.70
2023-07-11T20:38:46.194Z,0.90
2023-07-11T20:41:16.514Z,0.90
2023-07-11T20:43:44.275Z,0.63
2023-07-11T20:46:20.900Z,0.70
2023-07-11T20:48:48.880Z,0.77
2023-07-11T20:51:18.296Z,0.43
2023-07-11T20:53:48.923Z,0.70
2023-07-11T20:56:22.285Z,0.70
2023-07-11T20:58:50.538Z,0.80
2023-07-11T21:01:21.276Z,0.60
2023-07-11T21:03:48.732Z,0.75
2023-07-11T21:06:27.291Z,0.80
2023-07-11T21:08:54.011Z,0.82
2023-07-11T21:11:20.911Z,0.75
2023-07-11T21:13:52.318Z,0.57
2023-07-11T21:16:22.012Z,0.63
2023-07-11T21:18:49.026Z,0.60
2023-07-11T21:21:16.194Z,0.80
2023-07-11T21:23:46.044Z,0.90
2023-07-11T21:26:16.338Z,0.98
2023-07-11T21:28:44.166Z,1.20
2023-07-11T21:31:13.759Z,1.48
2023-07-11T21:33:43.292Z,1.50
2023-07-11T21:36:19.888Z,1.33
2023-07-11T21:38:47.975Z,1.20
2023-07-11T21:41:17.368Z,1.15
2023-07-11T21:43:48.263Z,1.20
2023-07-11T21:46:41.398Z,1.02
2023-07-11T21:49:11.500Z,1.20
2023-07-11T21:51:38.274Z,1.10
2023-07-11T21:54:07.245Z,1.00
2023-07-11T21:56:33.901Z,1.00
2023-07-11T21:59:05.680Z,1.20
2023-07-11T22:01:32.865Z,1.10
2023-07-11T22:04:01.990Z,2.58
2023-07-11T22:06:31.665Z,2.45
2023-07-11T22:08:58.883Z,1.67
2023-07-11T22:11:25.701Z,1.80
2023-07-11T22:13:52.728Z,2.60
2023-07-11T22:16:28.742Z,4.25
2023-07-11T22:18:58.583Z,1.50
2023-07-11T22:21:26.918Z,1.30
2023-07-11T22:23:54.125Z,1.63
2023-07-11T22:26:32.238Z,4.38
2023-07-11T22:29:01.754Z,2.97
2023-07-11T22:31:28.764Z,2.75
2023-07-11T22:33:55.767Z,3.28
2023-07-11T22:36:24.998Z,2.08
2023-07-11T22:38:51.587Z,1.67
2023-07-11T22:41:18.333Z,2.00
2023-07-11T22:43:46.957Z,1.42
2023-07-11T22:46:17.912Z,3.42
2023-07-11T22:48:48.294Z,2.45
2023-07-11T22:51:18.309Z,1.88
2023-07-11T22:53:45.852Z,1.73
2023-07-11T22:56:22.285Z,1.40
2023-07-11T22:58:50.081Z,1.38
2023-07-11T23:01:19.258Z,1.50
2023-07-11T23:03:48.974Z,1.20
2023-07-11T23:06:28.039Z,1.52
2023-07-11T23:08:58.568Z,1.35
2023-07-11T23:11:26.765Z,1.55
2023-07-11T23:13:53.474Z,1.50
2023-07-11T23:16:30.339Z,1.10
2023-07-11T23:19:01.014Z,1.60
2023-07-11T23:21:31.207Z,1.17
2023-07-11T23:24:01.817Z,1.27
2023-07-11T23:26:29.622Z,1.48
2023-07-11T23:28:56.647Z,1.25
2023-07-11T23:31:24.069Z,1.20
2023-07-11T23:33:53.131Z,1.17
2023-07-11T23:36:25.722Z,1.38
2023-07-11T23:38:53.974Z,1.80
2023-07-11T23:41:24.460Z,1.58
2023-07-11T23:43:53.207Z,1.67
2023-07-11T23:46:26.920Z,2.28
2023-07-11T23:48:54.644Z,1.40
2023-07-11T23:51:23.310Z,1.40
2023-07-11T23:53:51.176Z,1.77
2023-07-11T23:56:39.691Z,1.50
2023-07-11T23:59:06.605Z,1.30
